Time;durP1;ratioP1;P1;durP2;ratioP2;P2;SDS_P1;SDS_P2;PMS_P1;PMS_P2;Temp;Humidity;BMP_temperature;BMP_pressure;BME280_temperature;BME280_humidity;BME280_pressure;Samples;Min_cycle;Max_cycle;Signal;HPM_P1;HPM_P2
2022/06/11 00:01:28;;;;;;;8.50;5.80;;;;;;;18.15;69.55;100859.00;106157;1270;23202;-78
2022/06/11 00:03:58;;;;;;;6.20;5.60;;;;;;;18.15;69.49;100859.36;106206;1271;24822;-76
2022/06/11 00:06:27;;;;;;;6.80;4.80;;;;;;;18.11;69.40;100865.52;106122;1271;22541;-74
2022/06/11 00:08:54;;;;;;;5.90;5.10;;;;;;;18.08;69.52;100869.90;106333;1270;24711;-78
2022/06/11 00:11:23;;;;;;;5.20;4.70;;;;;;;18.04;69.49;100871.23;106319;1270;24135;-74
2022/06/11 00:13:51;;;;;;;5.40;4.00;;;;;;;18.00;69.37;100868.89;106379;1270;25948;-73
2022/06/11 00:16:21;;;;;;;6.20;4.70;;;;;;;18.02;69.51;100878.09;106237;1273;25215;-73
2022/06/11 00:18:50;;;;;;;5.40;4.40;;;;;;;18.03;69.40;100881.63;106332;1271;22545;-71
2022/06/11 00:21:17;;;;;;;6.70;4.40;;;;;;;17.98;69.20;100881.63;106264;1271;25525;-79
2022/06/11 00:23:46;;;;;;;5.50;5.00;;;;;;;17.95;69.44;100878.88;106329;1270;23197;-75
2022/06/11 00:26:14;;;;;;;4.40;4.10;;;;;;;17.97;69.59;100882.73;106448;1269;25512;-75
2022/06/11 00:28:40;;;;;;;6.50;5.00;;;;;;;17.97;69.62;100884.50;106255;1270;25382;-74
2022/06/11 00:31:10;;;;;;;4.40;4.00;;;;;;;17.95;69.57;100889.17;106386;1270;22589;-74
2022/06/11 00:33:38;;;;;;;4.50;3.90;;;;;;;17.95;69.50;100892.39;106362;1271;25583;-73
2022/06/11 00:36:06;;;;;;;5.10;4.50;;;;;;;17.95;69.47;100888.13;106297;1270;23209;-74
2022/06/11 00:38:35;;;;;;;5.00;4.00;;;;;;;17.93;69.46;100889.98;105836;1275;25271;-72
2022/06/11 00:41:02;;;;;;;7.50;4.40;;;;;;;17.92;69.56;100888.20;105915;1276;22532;-85
2022/06/11 00:43:30;;;;;;;5.80;4.60;;;;;;;17.89;69.54;100892.23;105807;1276;22825;-72
2022/06/11 00:46:39;;;;;;;5.00;4.50;;;;;;;17.88;69.49;100900.29;105757;1277;25449;-74
2022/06/11 00:49:32;;;;;;;6.00;4.30;;;;;;;17.82;69.56;100897.95;105993;1276;22578;-72
2022/06/11 00:52:14;;;;;;;5.80;4.40;;;;;;;17.77;69.68;100896.33;105968;1277;24056;-70
2022/06/11 00:54:44;;;;;;;7.10;4.40;;;;;;;17.75;69.71;100898.20;106018;1276;25469;-72
2022/06/11 00:57:13;;;;;;;4.30;3.90;;;;;;;17.72;69.63;100895.61;106291;1270;25302;-75
2022/06/11 00:59:46;;;;;;;4.40;3.90;;;;;;;17.70;69.75;100892.27;106409;1270;24019;-73
2022/06/11 01:02:13;;;;;;;4.40;4.00;;;;;;;17.67;69.78;100891.48;106054;1276;25354;-74
2022/06/11 01:04:44;;;;;;;4.90;4.40;;;;;;;17.64;69.69;100893.02;105829;1276;25626;-73
2022/06/11 01:07:42;;;;;;;5.10;4.00;;;;;;;17.62;69.93;100898.07;105997;1276;24286;-70
2022/06/11 01:10:32;;;;;;;5.00;4.50;;;;;;;17.58;69.89;100899.26;105820;1277;22548;-71
2022/06/11 01:13:18;;;;;;;5.30;4.20;;;;;;;17.51;69.88;100897.84;105885;1276;24131;-73
2022/06/11 01:15:55;;;;;;;;;;;;;;;17.47;69.99;100899.20;105963;1276;24312;-73
2022/06/11 01:18:29;;;;;;;4.90;4.40;;;;;;;17.44;70.05;100890.76;105858;1276;25556;-73
2022/06/11 01:20:56;;;;;;;4.00;3.50;;;;;;;17.42;70.13;100886.89;106118;1270;25325;-69
2022/06/11 01:23:39;;;;;;;6.30;4.10;;;;;;;17.38;70.13;100881.68;106208;1271;22551;-70
2022/06/11 01:26:37;;;;;;;4.40;4.00;;;;;;;17.37;70.26;100883.48;106158;1271;25467;-70
2022/06/11 01:29:32;;;;;;;5.00;4.50;;;;;;;17.30;70.48;100880.27;106074;1271;22618;-72
2022/06/11 01:32:17;;;;;;;5.80;4.90;;;;;;;17.26;70.46;100875.42;106290;1270;26510;-70
2022/06/11 01:34:49;;;;;;;4.90;4.50;;;;;;;17.21;70.40;100874.50;106111;1274;26823;-68
2022/06/11 01:37:24;;;;;;;5.00;4.30;;;;;;;17.17;70.50;100872.48;106185;1271;24306;-68
2022/06/11 01:40:01;;;;;;;3.90;3.60;;;;;;;17.09;70.55;100869.52;105585;1278;26511;-70
2022/06/11 01:42:39;;;;;;;4.30;3.90;;;;;;;17.09;70.80;100877.70;105546;1277;25393;-69
2022/06/11 01:45:36;;;;;;;4.40;3.80;;;;;;;17.08;70.82;100875.94;105706;1277;24350;-71
2022/06/11 01:48:06;;;;;;;4.90;4.20;;;;;;;17.04;70.56;100873.19;105603;1278;22612;-71
2022/06/11 01:50:39;;;;;;;4.80;3.90;;;;;;;17.00;70.66;100871.34;105606;1281;23924;-71
2022/06/11 01:53:18;;;;;;;5.40;3.90;;;;;;;16.95;70.52;100870.77;105601;1279;24163;-75
2022/06/11 01:56:03;;;;;;;8.20;4.10;;;;;;;16.89;70.43;100865.45;105440;1281;25965;-71
2022/06/11 01:58:44;;;;;;;5.30;3.60;;;;;;;16.81;70.33;100864.73;106090;1277;23610;-74
2022/06/11 02:01:26;;;;;;;4.50;3.50;;;;;;;16.76;70.36;100865.04;106263;1276;23273;-72
2022/06/11 02:03:58;;;;;;;6.60;3.90;;;;;;;16.73;70.31;100869.06;106100;1278;22739;-74
2022/06/11 02:06:39;;;;;;;3.30;3.00;;;;;;;16.70;70.33;100875.35;106038;1277;23942;-74
2022/06/11 02:09:09;;;;;;;3.90;3.50;;;;;;;16.67;70.04;100874.19;105817;1276;24518;-73
2022/06/11 02:11:49;;;;;;;4.10;3.50;;;;;;;16.64;70.05;100874.80;106167;1271;22704;-77
2022/06/11 02:14:32;;;;;;;3.80;3.30;;;;;;;16.62;69.98;100878.76;106243;1272;24074;-73
2022/06/11 02:17:06;;;;;;;4.30;3.40;;;;;;;16.58;69.90;100882.95;106328;1271;25379;-73
2022/06/11 02:19:40;;;;;;;3.90;3.60;;;;;;;16.54;69.75;100886.45;106158;1270;22691;-72
2022/06/11 02:22:14;;;;;;;3.70;3.40;;;;;;;16.47;69.48;100884.66;106199;1271;24024;-74
2022/06/11 02:24:46;;;;;;;3.50;3.20;;;;;;;16.43;69.61;100884.95;106094;1273;25445;-74
2022/06/11 02:27:18;;;;;;;3.40;3.10;;;;;;;16.42;69.63;100883.02;106347;1270;24371;-74
2022/06/11 02:29:46;;;;;;;2.90;2.70;;;;;;;16.41;69.58;100880.54;106285;1270;22526;-77
2022/06/11 02:32:16;;;;;;;3.60;2.70;;;;;;;16.41;69.47;100879.48;106234;1270;24444;-72
2022/06/11 02:34:49;;;;;;;3.10;2.80;;;;;;;16.39;69.44;100880.40;106004;1272;22537;-73
2022/06/11 02:37:45;;;;;;;5.30;2.60;;;;;;;16.39;69.27;100882.01;106152;1271;22647;-69
2022/06/11 02:40:19;;;;;;;4.10;3.10;;;;;;;16.39;69.32;100881.14;105690;1277;22497;-72
2022/06/11 02:42:47;;;;;;;3.30;3.00;;;;;;;16.34;69.22;100883.94;105589;1278;25378;-69
2022/06/11 02:45:14;;;;;;;3.20;2.90;;;;;;;16.34;69.21;100886.94;105770;1276;22577;-71
2022/06/11 02:47:44;;;;;;;5.10;3.10;;;;;;;16.30;69.17;100890.43;105772;1277;22554;-72
2022/06/11 02:50:20;;;;;;;6.20;2.90;;;;;;;16.26;69.10;100887.85;105514;1277;24328;-72
2022/06/11 02:52:47;;;;;;;2.80;2.60;;;;;;;16.24;69.01;100885.77;105485;1276;24431;-70
2022/06/11 02:55:14;;;;;;;3.00;2.70;;;;;;;16.20;68.96;100881.80;105746;1277;23874;-70
2022/06/11 02:57:41;;;;;;;3.70;2.90;;;;;;;16.25;68.98;100886.98;105581;1274;25485;-70
2022/06/11 03:00:11;;;;;;;3.50;3.20;;;;;;;16.26;68.90;100891.23;106012;1272;24442;-68
2022/06/11 03:02:38;;;;;;;3.80;3.40;;;;;;;16.26;68.92;100891.77;105955;1271;22622;-73
2022/06/11 03:05:06;;;;;;;3.50;3.00;;;;;;;16.26;68.99;100889.10;106124;1270;22877;-70
2022/06/11 03:07:33;;;;;;;5.50;3.80;;;;;;;16.26;68.95;100888.05;106044;1270;22528;-69
2022/06/11 03:09:59;;;;;;;2.90;2.70;;;;;;;16.25;68.77;100890.92;106207;1270;22717;-70
2022/06/11 03:12:26;;;;;;;3.20;2.90;;;;;;;16.25;68.75;100882.90;105766;1270;22528;-71
2022/06/11 03:14:53;;;;;;;3.30;3.00;;;;;;;16.24;68.58;100887.73;106155;1270;22614;-69
2022/06/11 03:17:21;;;;;;;4.00;3.20;;;;;;;16.21;68.59;100891.88;106085;1271;25305;-70
2022/06/11 03:19:48;;;;;;;3.30;3.00;;;;;;;16.21;68.78;100891.71;106257;1270;24274;-70
2022/06/11 03:22:17;;;;;;;2.90;2.70;;;;;;;16.21;68.68;100892.05;106289;1270;22646;-74
2022/06/11 03:24:45;;;;;;;4.90;3.10;;;;;;;16.20;68.50;100885.48;106128;1270;23941;-71
2022/06/11 03:27:13;;;;;;;3.70;2.40;;;;;;;16.21;68.77;100884.77;105928;1270;25260;-71
2022/06/11 03:29:40;;;;;;;2.90;2.70;;;;;;;16.23;68.52;100885.64;106165;1270;22632;-71
2022/06/11 03:32:07;;;;;;;2.50;2.30;;;;;;;16.21;68.42;100881.56;105937;1273;23936;-71
2022/06/11 03:34:35;;;;;;;4.10;2.80;;;;;;;16.21;68.41;100880.53;106157;1270;22528;-69
2022/06/11 03:37:04;;;;;;;3.20;2.90;;;;;;;16.23;68.40;100882.42;106283;1270;22695;-68
2022/06/11 03:39:31;;;;;;;5.30;3.00;;;;;;;16.22;68.31;100886.54;106003;1270;25246;-71
2022/06/11 03:41:58;;;;;;;3.40;3.10;;;;;;;16.19;68.15;100887.86;106111;1271;23195;-72
2022/06/11 03:44:25;;;;;;;3.00;2.70;;;;;;;16.11;68.05;100890.36;106261;1270;22549;-70
2022/06/11 03:46:53;;;;;;;2.80;2.50;;;;;;;16.05;68.24;100890.85;106139;1270;22728;-70
2022/06/11 03:49:19;;;;;;;2.70;2.30;;;;;;;16.05;68.35;100895.13;106284;1270;22562;-69
2022/06/11 03:51:46;;;;;;;5.30;2.40;;;;;;;16.08;68.28;100893.98;105933;1272;24169;-70
2022/06/11 03:54:15;;;;;;;2.40;2.20;;;;;;;16.12;68.32;100895.65;106127;1270;24755;-74
2022/06/11 03:56:44;;;;;;;3.80;2.60;;;;;;;16.17;68.12;100891.81;106135;1271;22754;-70
2022/06/11 03:59:12;;;;;;;3.40;2.60;;;;;;;16.17;68.07;100891.81;106287;1270;24338;-70
2022/06/11 04:01:40;;;;;;;4.00;2.40;;;;;;;16.22;68.18;100892.22;106163;1271;22522;-70
2022/06/11 04:04:10;;;;;;;4.20;2.20;;;;;;;16.20;67.65;100892.61;106291;1270;22878;-67
2022/06/11 04:06:50;;;;;;;3.00;2.70;;;;;;;16.16;67.64;100896.79;106009;1270;22842;-66
2022/06/11 04:09:25;;;;;;;2.60;2.40;;;;;;;16.17;67.68;100902.46;105960;1270;24960;-75
2022/06/11 04:11:53;;;;;;;3.30;2.20;;;;;;;16.21;67.40;100904.14;106290;1270;22580;-71
2022/06/11 04:14:20;;;;;;;3.70;2.40;;;;;;;16.20;67.23;100903.64;106172;1271;22565;-72
2022/06/11 04:16:54;;;;;;;3.60;2.50;;;;;;;16.19;67.18;100901.88;106325;1270;24589;-71
2022/06/11 04:19:27;;;;;;;3.60;2.50;;;;;;;16.14;67.22;100901.83;106405;1270;22657;-70
2022/06/11 04:21:55;;;;;;;2.00;1.90;;;;;;;16.14;67.19;100902.19;106195;1270;25389;-70
2022/06/11 04:24:23;;;;;;;2.60;2.20;;;;;;;16.18;67.24;100897.98;106156;1270;22558;-70
2022/06/11 04:26:53;;;;;;;2.30;2.10;;;;;;;16.23;66.97;100896.82;106224;1270;22544;-71
2022/06/11 04:29:24;;;;;;;2.20;2.00;;;;;;;16.26;66.97;100895.68;106107;1270;22618;-75
2022/06/11 04:31:54;;;;;;;5.90;2.30;;;;;;;16.33;67.16;100895.85;106386;1270;26500;-78
2022/06/11 04:34:22;;;;;;;2.10;1.90;;;;;;;16.39;66.73;100897.31;106265;1267;26570;-77
2022/06/11 04:36:50;;;;;;;3.00;2.70;;;;;;;16.40;66.64;100897.82;106206;1270;22594;-75
2022/06/11 04:39:20;;;;;;;2.10;1.90;;;;;;;16.41;66.57;100903.65;106313;1270;25330;-70
2022/06/11 04:41:48;;;;;;;2.10;1.90;;;;;;;16.40;66.37;100902.08;106030;1272;24449;-73
2022/06/11 04:44:16;;;;;;;1.80;1.70;;;;;;;16.38;66.13;100897.67;106344;1270;22757;-74
2022/06/11 04:46:43;;;;;;;2.30;2.10;;;;;;;16.40;66.24;100905.80;106258;1270;22540;-72
2022/06/11 04:49:11;;;;;;;3.80;1.80;;;;;;;16.42;66.27;100904.70;106236;1270;22598;-72
2022/06/11 04:51:39;;;;;;;1.90;1.80;;;;;;;16.41;66.02;100907.39;106001;1270;26613;-73
2022/06/11 04:54:07;;;;;;;2.10;1.90;;;;;;;16.37;66.02;100906.95;106211;1270;25512;-73
2022/06/11 04:56:33;;;;;;;4.70;1.80;;;;;;;16.40;66.12;100907.41;106108;1270;22666;-73
2022/06/11 04:59:00;;;;;;;1.80;1.70;;;;;;;16.42;65.95;100903.45;106146;1270;24425;-77
2022/06/11 05:01:34;;;;;;;2.10;1.50;;;;;;;16.42;65.68;100901.52;106349;1270;24224;-79
2022/06/11 05:04:01;;;;;;;1.70;1.60;;;;;;;16.47;65.47;100906.72;106036;1270;26006;-78
2022/06/11 05:06:32;;;;;;;1.50;1.40;;;;;;;16.55;65.52;100909.70;106234;1270;22522;-79
2022/06/11 05:08:59;;;;;;;3.40;1.60;;;;;;;16.62;65.30;100908.66;106252;1270;22548;-81
2022/06/11 05:11:25;;;;;;;3.20;1.50;;;;;;;16.63;64.87;100909.66;106253;1271;22625;-78
2022/06/11 05:13:53;;;;;;;1.40;1.30;;;;;;;16.63;64.52;100912.89;106339;1270;25422;-76
2022/06/11 05:16:21;;;;;;;3.70;1.30;;;;;;;16.65;64.41;100912.11;106227;1271;22944;-81
2022/06/11 05:18:48;;;;;;;1.30;1.20;;;;;;;16.64;64.20;100911.60;106343;1270;25306;-81
2022/06/11 05:21:15;;;;;;;1.70;1.30;;;;;;;16.70;64.34;100909.33;106429;1270;25384;-80
2022/06/11 05:23:42;;;;;;;2.30;1.20;;;;;;;16.75;64.27;100912.21;106446;1271;22865;-75
2022/06/11 05:26:21;;;;;;;1.10;1.00;;;;;;;16.78;64.16;100913.55;106345;1270;25331;-82
2022/06/11 05:28:49;;;;;;;2.70;1.40;;;;;;;16.83;64.15;100915.56;106111;1271;24511;-82
2022/06/11 05:31:16;;;;;;;1.80;1.40;;;;;;;16.83;63.55;100916.08;106138;1270;22694;-81
2022/06/11 05:33:44;;;;;;;1.90;1.20;;;;;;;16.77;63.05;100919.63;106033;1270;22530;-76
2022/06/11 05:36:13;;;;;;;2.60;1.30;;;;;;;16.68;63.26;100918.09;106066;1271;24344;-77
2022/06/11 05:38:41;;;;;;;1.30;1.20;;;;;;;16.73;63.68;100919.02;106176;1270;22595;-78
2022/06/11 05:41:09;;;;;;;1.80;1.70;;;;;;;16.74;63.46;100917.21;106293;1269;22545;-76
2022/06/11 05:43:36;;;;;;;2.10;1.70;;;;;;;16.78;63.60;100921.75;106183;1271;24361;-76
2022/06/11 05:46:12;;;;;;;3.50;2.00;;;;;;;16.76;63.75;100922.14;106061;1271;22544;-77
2022/06/11 05:48:44;;;;;;;2.60;2.00;;;;;;;16.75;63.70;100927.48;106239;1270;24434;-77
2022/06/11 05:51:14;;;;;;;2.60;2.20;;;;;;;16.78;63.76;100930.98;106328;1270;23182;-77
2022/06/11 05:53:49;;;;;;;2.10;1.70;;;;;;;16.83;63.81;100931.73;106083;1270;25253;-76
2022/06/11 05:56:18;;;;;;;3.00;2.30;;;;;;;16.85;63.88;100932.21;106132;1270;25329;-76
2022/06/11 05:58:51;;;;;;;5.30;3.10;;;;;;;16.90;64.02;100934.60;106016;1271;22598;-76
2022/06/11 06:01:23;;;;;;;3.60;2.50;;;;;;;16.94;64.25;100938.38;106081;1270;24383;-76
2022/06/11 06:03:50;;;;;;;2.90;2.20;;;;;;;17.02;64.22;100937.80;106229;1270;22483;-77
2022/06/11 06:06:17;;;;;;;4.80;2.30;;;;;;;17.12;64.39;100944.33;106092;1270;26507;-76
2022/06/11 06:08:44;;;;;;;3.20;2.50;;;;;;;17.19;64.35;100939.34;106157;1271;22716;-77
2022/06/11 06:11:12;;;;;;;3.40;2.60;;;;;;;17.23;64.36;100941.20;106039;1271;22789;-78
2022/06/11 06:13:48;;;;;;;3.60;2.70;;;;;;;17.27;64.15;100938.96;106080;1271;22718;-76
2022/06/11 06:16:20;;;;;;;4.00;2.90;;;;;;;17.37;64.16;100944.73;106175;1270;22856;-76
2022/06/11 06:18:49;;;;;;;5.30;3.20;;;;;;;17.42;64.04;100945.11;106306;1270;22596;-77
2022/06/11 06:21:20;;;;;;;3.90;2.80;;;;;;;17.49;64.20;100950.43;106246;1270;22866;-79
2022/06/11 06:23:47;;;;;;;4.40;2.70;;;;;;;17.53;63.72;100949.96;106187;1270;25613;-77
2022/06/11 06:26:14;;;;;;;5.00;3.20;;;;;;;17.53;63.78;100949.95;105930;1270;23920;-77
2022/06/11 06:28:41;;;;;;;5.20;3.10;;;;;;;17.55;63.65;100949.02;106121;1270;22618;-78
2022/06/11 06:31:10;;;;;;;3.60;2.70;;;;;;;17.57;63.77;100945.37;105865;1274;22588;-77
2022/06/11 06:33:37;;;;;;;3.50;1.90;;;;;;;17.64;63.75;100950.35;105975;1274;25618;-78
2022/06/11 06:36:06;;;;;;;7.20;4.10;;;;;;;17.64;63.35;100952.49;105839;1276;22594;-79
2022/06/11 06:38:34;;;;;;;3.80;2.50;;;;;;;17.64;63.29;100953.20;105903;1274;22915;-80
2022/06/11 06:41:01;;;;;;;10.50;4.90;;;;;;;17.67;63.22;100956.13;105694;1276;25604;-78
2022/06/11 06:43:28;;;;;;;7.60;3.60;;;;;;;17.74;63.31;100956.66;105768;1274;22531;-77
2022/06/11 06:45:55;;;;;;;11.90;6.20;;;;;;;17.80;62.98;100956.11;105885;1276;22551;-77
2022/06/11 06:48:22;;;;;;;2.90;2.30;;;;;;;17.88;62.62;100958.00;105718;1276;22576;-78
2022/06/11 06:50:49;;;;;;;3.10;2.40;;;;;;;17.95;62.47;100958.52;106136;1270;26716;-80
2022/06/11 06:53:16;;;;;;;3.00;2.50;;;;;;;18.01;62.14;100957.23;106048;1270;24218;-81
2022/06/11 06:55:44;;;;;;;6.30;4.20;;;;;;;18.08;62.19;100958.11;106246;1270;25255;-81
2022/06/11 06:58:14;;;;;;;3.80;2.80;;;;;;;18.17;62.02;100964.46;106160;1270;22526;-81
2022/06/11 07:00:43;;;;;;;3.70;1.90;;;;;;;18.28;61.67;100964.98;106258;1270;23398;-82
2022/06/11 07:03:13;;;;;;;6.00;2.50;;;;;;;18.37;61.53;100962.56;106248;1270;24240;-80
2022/06/11 07:05:42;;;;;;;4.10;2.70;;;;;;;18.47;61.19;100967.40;105829;1276;25406;-76
2022/06/11 07:08:09;;;;;;;3.90;2.40;;;;;;;18.51;61.02;100968.54;105929;1276;22686;-82
2022/06/11 07:10:48;;;;;;;3.80;2.50;;;;;;;18.51;60.86;100973.52;105792;1276;25769;-88
2022/06/11 07:13:16;;;;;;;3.60;2.10;;;;;;;18.41;60.72;100975.98;106178;1276;22549;-86
2022/06/11 07:15:47;;;;;;;2.90;1.80;;;;;;;18.35;60.89;100979.59;106211;1276;24153;-88
2022/06/11 07:18:23;;;;;;;4.90;2.10;;;;;;;18.33;60.48;100979.63;107064;1276;22550;-87
2022/06/11 07:20:52;;;;;;;2.30;1.70;;;;;;;18.31;60.01;100979.33;107287;1276;22539;-76
2022/06/11 07:23:27;;;;;;;3.20;1.80;;;;;;;18.33;59.85;100981.06;107589;1270;25354;-78
2022/06/11 07:25:59;;;;;;;2.60;2.10;;;;;;;18.38;59.59;100978.77;107384;1270;22568;-77
2022/06/11 07:28:37;;;;;;;1.80;1.60;;;;;;;18.47;59.80;100979.89;106876;1270;22528;-79
2022/06/11 07:31:04;;;;;;;2.30;1.70;;;;;;;18.50;59.04;100980.33;107204;1270;24221;-80
2022/06/11 07:33:31;;;;;;;3.00;2.00;;;;;;;18.47;58.54;100982.05;106778;1270;22599;-75
2022/06/11 07:35:58;;;;;;;3.00;2.40;;;;;;;18.45;58.21;100984.27;106488;1270;24223;-78
2022/06/11 07:38:28;;;;;;;4.70;2.30;;;;;;;18.45;58.46;100978.89;106373;1270;25293;-77
2022/06/11 07:40:55;;;;;;;3.80;2.50;;;;;;;18.55;58.45;100980.16;106170;1270;25351;-73
2022/06/11 07:43:23;;;;;;;2.70;2.40;;;;;;;18.68;58.47;100978.69;106164;1271;25228;-74
2022/06/11 07:45:51;;;;;;;3.20;1.80;;;;;;;18.80;58.40;100983.99;106175;1270;27033;-74
2022/06/11 07:48:18;;;;;;;3.60;2.00;;;;;;;18.91;58.57;100977.17;105879;1276;25390;-73
2022/06/11 07:50:48;;;;;;;2.80;2.10;;;;;;;19.08;58.35;100973.59;106144;1276;24693;-73
2022/06/11 07:53:17;;;;;;;4.40;1.40;;;;;;;19.22;58.35;100972.75;105900;1276;22520;-73
2022/06/11 07:55:46;;;;;;;2.30;1.40;;;;;;;19.34;56.85;100978.23;105993;1274;22550;-74
2022/06/11 07:58:15;;;;;;;2.50;1.60;;;;;;;19.27;56.36;100979.00;105963;1276;22806;-76
2022/06/11 08:00:46;;;;;;;1.30;1.20;;;;;;;19.22;55.52;100978.64;105950;1275;22552;-74
2022/06/11 08:03:14;;;;;;;2.50;1.40;;;;;;;19.27;55.45;100978.11;106051;1274;24318;-71
2022/06/11 08:05:42;;;;;;;4.40;1.80;;;;;;;19.37;55.49;100975.44;106154;1273;25249;-74
2022/06/11 08:08:10;;;;;;;2.10;1.60;;;;;;;19.47;55.61;100975.79;106538;1270;24232;-77
2022/06/11 08:10:39;;;;;;;3.10;2.10;;;;;;;19.55;55.55;100977.42;106532;1270;22740;-75
2022/06/11 08:13:07;;;;;;;5.10;2.30;;;;;;;19.73;55.72;100975.53;106392;1270;347247;-74
2022/06/11 08:15:36;;;;;;;3.80;2.00;;;;;;;19.99;55.98;100970.95;106277;1270;25258;-74
2022/06/11 08:18:04;;;;;;;5.10;2.70;;;;;;;20.19;54.74;100966.42;106525;1270;22550;-74
2022/06/11 08:20:33;;;;;;;2.30;1.40;;;;;;;20.29;54.73;100969.11;106649;1270;25270;-70
2022/06/11 08:23:02;;;;;;;2.20;1.50;;;;;;;20.25;54.15;100970.13;106708;1271;22525;-71
2022/06/11 08:25:29;;;;;;;4.40;1.70;;;;;;;20.27;53.76;100969.17;106819;1270;22692;-73
2022/06/11 08:27:56;;;;;;;2.20;1.40;;;;;;;20.27;53.59;100967.17;106515;1270;24292;-75
2022/06/11 08:30:26;;;;;;;2.30;1.90;;;;;;;20.26;53.68;100970.98;106331;1270;22547;-73
2022/06/11 08:32:53;;;;;;;2.40;2.20;;;;;;;20.31;54.28;100967.04;106254;1270;23879;-76
2022/06/11 08:35:26;;;;;;;2.80;1.50;;;;;;;20.49;53.69;100969.34;106433;1270;22713;-75
2022/06/11 08:37:54;;;;;;;2.90;1.50;;;;;;;20.69;53.49;100969.95;106411;1270;24377;-78
2022/06/11 08:40:21;;;;;;;2.60;1.60;;;;;;;20.84;52.53;100966.98;106490;1270;22554;-81
2022/06/11 08:42:58;;;;;;;1.40;1.30;;;;;;;20.91;51.56;100957.21;106704;1270;24020;-77
2022/06/11 08:45:38;;;;;;;1.40;1.30;;;;;;;20.95;51.34;100957.77;106498;1270;22555;-75
2022/06/11 08:48:14;;;;;;;1.10;1.00;;;;;;;20.99;51.13;100953.66;106157;1270;22831;-76
2022/06/11 08:50:51;;;;;;;1.40;1.30;;;;;;;21.07;50.40;100955.11;106325;1268;24279;-80
2022/06/11 08:53:20;;;;;;;3.60;1.40;;;;;;;21.12;49.94;100953.46;106131;1271;22872;-81
2022/06/11 08:55:47;;;;;;;2.80;1.40;;;;;;;21.20;50.17;100950.23;106377;1270;24270;-78
2022/06/11 08:58:51;;;;;;;6.50;1.70;;;;;;;21.29;48.67;100946.62;106129;1270;25523;-79
2022/06/11 09:01:25;;;;;;;1.20;1.10;;;;;;;21.44;47.97;100943.58;106326;1270;22705;-76
2022/06/11 09:04:07;;;;;;;2.10;1.20;;;;;;;21.53;47.99;100937.48;106185;1270;26689;-80
2022/06/11 09:07:12;;;;;;;1.80;1.20;;;;;;;21.68;47.13;100941.41;106172;1270;25237;-78
2022/06/11 09:09:45;;;;;;;3.60;1.40;;;;;;;21.72;47.06;100924.95;106014;1274;23927;-80
2022/06/11 09:12:46;;;;;;;2.60;1.30;;;;;;;21.91;47.81;100933.95;105855;1276;22543;-77
2022/06/11 09:15:59;;;;;;;1.90;1.10;;;;;;;22.12;47.01;100933.11;105954;1274;24217;-80
2022/06/11 09:18:38;;;;;;;1.90;1.40;;;;;;;22.21;46.00;100932.34;105719;1277;25316;-80
2022/06/11 09:21:22;;;;;;;1.60;1.50;;;;;;;22.12;45.93;100929.88;105847;1276;22717;-81
2022/06/11 09:24:07;;;;;;;3.80;1.30;;;;;;;22.13;46.82;100919.80;105825;1276;24417;-79
2022/06/11 09:26:45;;;;;;;2.00;1.00;;;;;;;22.31;46.37;100917.63;105766;1276;22534;-80
2022/06/11 09:29:35;;;;;;;2.30;1.10;;;;;;;22.46;46.03;100916.52;105507;1281;26714;-82
2022/06/11 09:32:11;;;;;;;1.40;1.10;;;;;;;22.61;45.40;100918.14;105482;1281;24267;-80
2022/06/11 09:34:53;;;;;;;1.50;1.20;;;;;;;22.70;44.98;100913.38;105732;1276;25349;-81
2022/06/11 09:37:47;;;;;;;2.50;1.10;;;;;;;22.82;44.76;100906.30;106191;1276;25353;-80
2022/06/11 09:40:38;;;;;;;1.10;1.00;;;;;;;22.99;44.41;100902.73;105222;1281;25459;-79
2022/06/11 09:43:40;;;;;;;2.10;1.00;;;;;;;23.19;42.78;100902.20;104698;1287;22542;-77
2022/06/11 09:46:22;;;;;;;4.20;1.20;;;;;;;23.28;41.60;100902.43;105089;1287;22551;-77
2022/06/11 09:49:26;;;;;;;2.40;1.00;;;;;;;23.39;41.44;100907.96;105337;1281;24281;-80
2022/06/11 09:52:21;;;;;;;1.10;0.90;;;;;;;23.47;40.43;100907.55;105501;1281;24308;-80
2022/06/11 09:55:00;;;;;;;1.20;0.90;;;;;;;23.46;40.38;100911.69;105567;1279;24219;-80
2022/06/11 09:57:46;;;;;;;1.40;0.90;;;;;;;23.57;40.29;100919.93;105480;1281;24325;-81
2022/06/11 10:00:43;;;;;;;2.40;1.20;;;;;;;23.75;40.40;100922.19;106033;1270;25845;-81
2022/06/11 10:03:37;;;;;;;1.80;1.30;;;;;;;23.91;40.31;100922.55;106622;1270;24301;-80
2022/06/11 10:06:25;;;;;;;4.40;1.20;;;;;;;24.14;40.39;100919.83;106576;1270;22538;-75
2022/06/11 10:09:03;;;;;;;1.50;1.00;;;;;;;24.32;39.25;100916.83;106517;1270;25454;-78
2022/06/11 10:12:02;;;;;;;1.40;1.00;;;;;;;24.34;38.92;100911.14;106309;1270;22654;-81
2022/06/11 10:14:44;;;;;;;1.80;0.90;;;;;;;24.37;38.60;100918.51;106417;1270;22557;-77
2022/06/11 10:17:34;;;;;;;0.90;0.70;;;;;;;24.35;37.90;100915.93;106473;1270;22532;-79
2022/06/11 10:20:20;;;;;;;1.40;0.90;;;;;;;24.30;37.25;100922.33;106856;1270;24216;-78
2022/06/11 10:23:10;;;;;;;0.90;0.80;;;;;;;24.44;37.28;100917.94;106843;1270;25223;-78
2022/06/11 10:25:56;;;;;;;1.50;1.00;;;;;;;24.52;37.14;100915.49;107133;1270;23169;-78
2022/06/11 10:28:33;;;;;;;1.90;0.90;;;;;;;24.75;37.77;100912.63;106980;1270;22638;-77
2022/06/11 10:31:12;;;;;;;2.40;1.10;;;;;;;25.02;37.44;100915.20;106530;1270;22553;-81
2022/06/11 10:33:59;;;;;;;1.30;1.00;;;;;;;25.10;36.82;100914.32;106436;1270;22507;-79
2022/06/11 10:36:34;;;;;;;3.80;1.10;;;;;;;25.11;37.13;100909.42;106269;1270;24379;-81
2022/06/11 10:39:22;;;;;;;3.00;1.40;;;;;;;25.10;37.64;100908.92;106348;1270;25079;-78
2022/06/11 10:42:14;;;;;;;2.60;1.90;;;;;;;25.15;37.06;100907.92;106299;1270;25246;-82
2022/06/11 10:44:51;;;;;;;1.80;1.50;;;;;;;25.18;37.60;100911.49;106362;1270;23937;-79
2022/06/11 10:47:28;;;;;;;4.40;4.00;;;;;;;25.28;37.63;100895.92;106411;1270;22534;-81
2022/06/11 10:50:14;;;;;;;2.80;1.40;;;;;;;25.43;37.52;100896.27;106498;1270;24440;-77
2022/06/11 10:52:53;;;;;;;1.70;1.50;;;;;;;25.44;36.12;100894.96;106418;1270;25409;-79
2022/06/11 10:55:47;;;;;;;1.60;1.30;;;;;;;25.31;36.79;100891.08;106317;1270;25416;-81
2022/06/11 10:58:43;;;;;;;1.10;1.10;;;;;;;25.47;37.45;100895.27;106387;1270;24221;-81
2022/06/11 11:01:25;;;;;;;1.40;1.10;;;;;;;25.65;37.89;100890.34;106406;1270;25361;-81
2022/06/11 11:04:17;;;;;;;2.00;1.10;;;;;;;25.84;37.76;100882.47;106281;1270;24040;-90
2022/06/11 11:06:44;;;;;;;3.70;1.80;;;;;;;26.15;38.14;100884.26;106187;1270;25419;-79
2022/06/11 11:09:24;;;;;;;3.20;1.60;;;;;;;26.46;37.92;100884.21;106427;1270;25398;-79
2022/06/11 11:11:56;;;;;;;1.80;1.30;;;;;;;26.65;37.94;100873.15;106581;1270;22675;-80
2022/06/11 11:14:41;;;;;;;1.40;1.30;;;;;;;26.88;37.68;100876.60;106574;1270;25373;-79
2022/06/11 11:17:24;;;;;;;1.30;1.20;;;;;;;27.00;37.33;100874.52;106578;1270;22837;-81
2022/06/11 11:22:42;;;;;;;4.20;1.20;;;;;;;27.06;35.79;100875.55;106447;1269;25374;-80
2022/06/11 11:25:22;;;;;;;1.60;1.20;;;;;;;26.88;35.92;100873.52;106375;1270;22733;-81
2022/06/11 11:27:50;;;;;;;4.10;1.10;;;;;;;26.91;36.38;100871.14;106287;1270;22534;-81
2022/06/11 11:30:17;;;;;;;1.40;1.10;;;;;;;26.92;36.62;100867.13;106124;1270;22548;-79
2022/06/11 11:32:47;;;;;;;3.00;1.50;;;;;;;27.10;36.67;100867.80;106176;1270;22529;-80
2022/06/11 11:35:36;;;;;;;1.60;1.20;;;;;;;27.28;36.37;100872.55;106334;1270;22528;-80
2022/06/11 11:38:23;;;;;;;1.20;1.10;;;;;;;27.33;35.56;100863.87;106223;1270;23192;-79
2022/06/11 11:41:00;;;;;;;2.60;1.20;;;;;;;27.34;35.31;100863.80;106222;1270;24348;-78
2022/06/11 11:43:43;;;;;;;3.10;0.90;;;;;;;27.25;35.58;100859.89;106321;1270;24309;-80
2022/06/11 11:46:13;;;;;;;1.20;1.10;;;;;;;27.24;35.86;100857.64;106194;1270;22594;-77
2022/06/11 11:48:54;;;;;;;0.80;0.80;;;;;;;27.46;36.27;100859.46;106191;1270;26502;-78
2022/06/11 11:51:32;;;;;;;1.20;1.10;;;;;;;27.74;35.97;100861.43;106364;1270;22526;-77